Terminal Aerodrome Forecast
Issued by NWS Indianapolis, IN

Current Version | Previous Version | Text Only | Print | Product List | Glossary On
Versions: 1 2 3 4 5 6 7 8 9 10 11 12 13 14 15 16 17 18 19 20 21 22 23 24 25
000
FTUS43 KIND 231315 AAB
TAFIND
TAF AMD
KIND 231315Z 2313/2418 15009KT P6SM -RA SCT009 OVC015
      TEMPO 2313/2316 4SM BR OVC009
     FM231600 19006KT 4SM SHRA BR SCT008 OVC015
     FM231900 25008KT 6SM SHRA OVC008
     FM240000 28007KT 5SM SHRA BR OVC060 WS020/31030KT
     FM240300 24007KT P6SM VCSH OVC070
     FM240600 24007KT P6SM OVC025
     FM241500 24011G22KT P6SM OVC008=

USA.gov is the U.S. government's official web portal to all federal, state and local government web resources and services.